KMKC/MKC METAR and TAF weather

Enter ICAO airport designator
Station Type Date Time Source
KMKC METAR 2020/07/10 15:54 UTC NOAA

KMKC 101554Z VRB03KT 10SM CLR 29/17 A3006 RMK AO2 SLP172 T02940167


Station Type Date Time Source
KMKC Decoded METAR 2020/07/10 15:54 UTC NOAA

KANSAS CITY DOWNTOWN AIRPORT , MO, United States (KMKC) 39-07N 094-36W 227M
Jul 10, 2020 - 11:54 AM EDT / 2020.07.10 1554 UTC
Wind: Variable at 3 MPH (3 KT):0
Visibility: 10 mile(s):0
Sky conditions: clear
Temperature: 84.9 F (29.4 C)
Dew Point: 62.1 F (16.7 C)
Relative Humidity: 46%
Pressure (altimeter): 30.06 in. Hg (1017 hPa)
ob: KMKC 101554Z VRB03KT 10SM CLR 29/17 A3006 RMK AO2 SLP172 T02940167
cycle: 16

Station Type Date Time Source
KMKC TAF 2020/07/10 12:22 UTC NOAA

TAF KMKC 101120Z 1012/1112 16004KT P6SM FEW250
FM111000 18009KT P6SM VCTS BKN035CB

Example: see airport list